sensor_id;sensor_type;location;lat;lon;timestamp;temperature;humidity
73252;DHT22;61473;50.834;4.552;2022-07-29T00:02:10;23.50;48.70
73252;DHT22;61473;50.834;4.552;2022-07-29T00:04:36;23.50;48.70
73252;DHT22;61473;50.834;4.552;2022-07-29T00:07:03;23.50;48.70
73252;DHT22;61473;50.834;4.552;2022-07-29T00:09:29;23.50;48.70
73252;DHT22;61473;50.834;4.552;2022-07-29T00:11:57;23.50;49.00
73252;DHT22;61473;50.834;4.552;2022-07-29T00:14:24;23.50;48.50
73252;DHT22;61473;50.834;4.552;2022-07-29T00:16:50;23.60;48.40
73252;DHT22;61473;50.834;4.552;2022-07-29T00:19:16;23.50;48.70
73252;DHT22;61473;50.834;4.552;2022-07-29T00:21:41;23.60;48.30
73252;DHT22;61473;50.834;4.552;2022-07-29T00:24:07;23.50;48.60
73252;DHT22;61473;50.834;4.552;2022-07-29T00:26:33;23.50;48.10
73252;DHT22;61473;50.834;4.552;2022-07-29T00:29:00;23.50;48.30
73252;DHT22;61473;50.834;4.552;2022-07-29T00:31:26;23.50;47.90
73252;DHT22;61473;50.834;4.552;2022-07-29T00:33:52;23.50;48.00
73252;DHT22;61473;50.834;4.552;2022-07-29T00:36:18;23.50;47.70
73252;DHT22;61473;50.834;4.552;2022-07-29T00:38:44;23.50;47.90
73252;DHT22;61473;50.834;4.552;2022-07-29T00:41:12;23.40;48.60
73252;DHT22;61473;50.834;4.552;2022-07-29T00:43:37;23.50;48.30
73252;DHT22;61473;50.834;4.552;2022-07-29T00:46:03;23.30;48.10
73252;DHT22;61473;50.834;4.552;2022-07-29T00:48:29;23.40;48.80
73252;DHT22;61473;50.834;4.552;2022-07-29T00:50:57;23.40;48.70
73252;DHT22;61473;50.834;4.552;2022-07-29T00:53:24;23.40;49.00
73252;DHT22;61473;50.834;4.552;2022-07-29T00:55:50;23.40;49.10
73252;DHT22;61473;50.834;4.552;2022-07-29T00:58:16;23.30;48.40
73252;DHT22;61473;50.834;4.552;2022-07-29T01:00:42;23.30;48.70
73252;DHT22;61473;50.834;4.552;2022-07-29T01:03:08;23.30;48.50
73252;DHT22;61473;50.834;4.552;2022-07-29T01:05:35;23.20;48.50
73252;DHT22;61473;50.834;4.552;2022-07-29T01:08:01;23.20;48.60
73252;DHT22;61473;50.834;4.552;2022-07-29T01:10:27;23.20;48.60
73252;DHT22;61473;50.834;4.552;2022-07-29T01:12:57;23.20;48.40
73252;DHT22;61473;50.834;4.552;2022-07-29T01:15:24;23.20;49.60
73252;DHT22;61473;50.834;4.552;2022-07-29T01:18:09;23.20;48.80
73252;DHT22;61473;50.834;4.552;2022-07-29T01:34:20;23.00;48.60
73252;DHT22;61473;50.834;4.552;2022-07-29T01:37:08;23.00;48.70
73252;DHT22;61473;50.834;4.552;2022-07-29T01:39:37;23.00;48.50
73252;DHT22;61473;50.834;4.552;2022-07-29T01:45:08;22.90;48.90
73252;DHT22;61473;50.834;4.552;2022-07-29T01:47:48;22.90;49.30
73252;DHT22;61473;50.834;4.552;2022-07-29T01:50:17;22.90;50.20
73252;DHT22;61473;50.834;4.552;2022-07-29T01:52:56;23.00;49.30
73252;DHT22;61473;50.834;4.552;2022-07-29T01:55:27;22.90;49.30
73252;DHT22;61473;50.834;4.552;2022-07-29T01:57:55;22.90;49.50
73252;DHT22;61473;50.834;4.552;2022-07-29T02:00:22;22.90;49.60
73252;DHT22;61473;50.834;4.552;2022-07-29T02:02:50;22.80;50.20
73252;DHT22;61473;50.834;4.552;2022-07-29T02:05:21;22.80;50.80
73252;DHT22;61473;50.834;4.552;2022-07-29T02:07:49;22.70;51.50
73252;DHT22;61473;50.834;4.552;2022-07-29T02:10:17;22.70;51.40
73252;DHT22;61473;50.834;4.552;2022-07-29T02:12:45;22.70;51.20
73252;DHT22;61473;50.834;4.552;2022-07-29T02:15:11;22.70;50.80
73252;DHT22;61473;50.834;4.552;2022-07-29T02:18:02;22.80;50.10
73252;DHT22;61473;50.834;4.552;2022-07-29T02:20:30;22.80;49.60
73252;DHT22;61473;50.834;4.552;2022-07-29T02:22:58;22.70;49.90
73252;DHT22;61473;50.834;4.552;2022-07-29T02:25:26;22.60;50.00
73252;DHT22;61473;50.834;4.552;2022-07-29T02:27:53;22.70;49.60
73252;DHT22;61473;50.834;4.552;2022-07-29T02:30:21;22.60;50.40
73252;DHT22;61473;50.834;4.552;2022-07-29T02:32:48;22.50;50.30
73252;DHT22;61473;50.834;4.552;2022-07-29T02:35:16;22.50;50.00
73252;DHT22;61473;50.834;4.552;2022-07-29T02:37:43;22.70;49.80
73252;DHT22;61473;50.834;4.552;2022-07-29T02:40:15;22.50;50.00
73252;DHT22;61473;50.834;4.552;2022-07-29T02:42:42;22.50;49.60
73252;DHT22;61473;50.834;4.552;2022-07-29T02:45:09;22.40;50.30
73252;DHT22;61473;50.834;4.552;2022-07-29T02:47:42;22.30;50.90
73252;DHT22;61473;50.834;4.552;2022-07-29T02:50:32;22.40;50.60
73252;DHT22;61473;50.834;4.552;2022-07-29T02:53:13;22.40;50.70
73252;DHT22;61473;50.834;4.552;2022-07-29T02:55:43;22.40;50.90
73252;DHT22;61473;50.834;4.552;2022-07-29T02:58:31;22.30;51.60
73252;DHT22;61473;50.834;4.552;2022-07-29T03:01:22;22.50;50.40
73252;DHT22;61473;50.834;4.552;2022-07-29T03:03:49;22.50;50.10
73252;DHT22;61473;50.834;4.552;2022-07-29T03:06:17;22.50;50.40
73252;DHT22;61473;50.834;4.552;2022-07-29T03:08:44;22.40;50.30
73252;DHT22;61473;50.834;4.552;2022-07-29T03:11:11;22.50;50.30
73252;DHT22;61473;50.834;4.552;2022-07-29T03:13:38;22.40;50.30
73252;DHT22;61473;50.834;4.552;2022-07-29T03:16:05;22.30;50.50
73252;DHT22;61473;50.834;4.552;2022-07-29T03:18:31;22.20;51.30
73252;DHT22;61473;50.834;4.552;2022-07-29T03:20:57;22.30;50.80
73252;DHT22;61473;50.834;4.552;2022-07-29T03:23:23;22.30;50.70
73252;DHT22;61473;50.834;4.552;2022-07-29T03:25:51;22.30;50.40
73252;DHT22;61473;50.834;4.552;2022-07-29T03:28:17;22.20;50.80
73252;DHT22;61473;50.834;4.552;2022-07-29T03:30:43;22.20;50.80
73252;DHT22;61473;50.834;4.552;2022-07-29T03:33:08;22.30;50.30
73252;DHT22;61473;50.834;4.552;2022-07-29T03:35:34;22.20;50.20
73252;DHT22;61473;50.834;4.552;2022-07-29T03:38:00;22.20;50.00
73252;DHT22;61473;50.834;4.552;2022-07-29T03:40:31;22.20;50.10
73252;DHT22;61473;50.834;4.552;2022-07-29T03:42:58;22.10;50.10
73252;DHT22;61473;50.834;4.552;2022-07-29T03:45:26;22.00;50.60
73252;DHT22;61473;50.834;4.552;2022-07-29T03:47:56;22.10;50.30
73252;DHT22;61473;50.834;4.552;2022-07-29T03:50:22;22.10;50.20
73252;DHT22;61473;50.834;4.552;2022-07-29T03:52:48;22.00;50.70
73252;DHT22;61473;50.834;4.552;2022-07-29T03:55:15;22.00;50.90
73252;DHT22;61473;50.834;4.552;2022-07-29T03:57:41;21.90;51.00
73252;DHT22;61473;50.834;4.552;2022-07-29T04:00:08;21.90;51.00
73252;DHT22;61473;50.834;4.552;2022-07-29T04:02:36;21.80;51.50
73252;DHT22;61473;50.834;4.552;2022-07-29T04:05:01;21.90;51.10
73252;DHT22;61473;50.834;4.552;2022-07-29T04:07:27;21.90;51.00
73252;DHT22;61473;50.834;4.552;2022-07-29T04:09:53;21.80;51.10
73252;DHT22;61473;50.834;4.552;2022-07-29T04:12:18;21.80;50.90
73252;DHT22;61473;50.834;4.552;2022-07-29T04:14:46;21.80;51.10
73252;DHT22;61473;50.834;4.552;2022-07-29T04:17:12;21.80;51.10
73252;DHT22;61473;50.834;4.552;2022-07-29T04:19:37;21.80;51.20
73252;DHT22;61473;50.834;4.552;2022-07-29T04:22:03;21.80;51.10
73252;DHT22;61473;50.834;4.552;2022-07-29T04:24:29;21.70;51.10
73252;DHT22;61473;50.834;4.552;2022-07-29T04:26:55;21.80;50.80
73252;DHT22;61473;50.834;4.552;2022-07-29T04:29:20;21.70;51.00
73252;DHT22;61473;50.834;4.552;2022-07-29T04:31:46;21.80;51.10
73252;DHT22;61473;50.834;4.552;2022-07-29T04:34:13;21.70;51.20
73252;DHT22;61473;50.834;4.552;2022-07-29T04:36:39;21.80;51.10
73252;DHT22;61473;50.834;4.552;2022-07-29T04:39:04;21.70;51.00
73252;DHT22;61473;50.834;4.552;2022-07-29T04:41:30;21.70;51.00
73252;DHT22;61473;50.834;4.552;2022-07-29T04:43:56;21.70;51.40
73252;DHT22;61473;50.834;4.552;2022-07-29T04:46:22;21.80;51.40
73252;DHT22;61473;50.834;4.552;2022-07-29T04:48:48;21.60;51.70
73252;DHT22;61473;50.834;4.552;2022-07-29T04:51:15;21.50;52.00
73252;DHT22;61473;50.834;4.552;2022-07-29T04:53:40;21.60;52.00
73252;DHT22;61473;50.834;4.552;2022-07-29T04:56:06;21.70;51.80
73252;DHT22;61473;50.834;4.552;2022-07-29T04:58:34;21.70;51.70
73252;DHT22;61473;50.834;4.552;2022-07-29T05:01:00;21.60;52.00
73252;DHT22;61473;50.834;4.552;2022-07-29T05:03:26;21.60;51.90
73252;DHT22;61473;50.834;4.552;2022-07-29T05:05:52;21.60;51.70
73252;DHT22;61473;50.834;4.552;2022-07-29T05:08:17;21.60;51.80
73252;DHT22;61473;50.834;4.552;2022-07-29T05:10:43;21.70;52.00
73252;DHT22;61473;50.834;4.552;2022-07-29T05:13:09;21.60;52.10
73252;DHT22;61473;50.834;4.552;2022-07-29T05:15:35;21.60;52.60
73252;DHT22;61473;50.834;4.552;2022-07-29T05:18:02;21.50;52.80
73252;DHT22;61473;50.834;4.552;2022-07-29T05:20:28;21.50;53.20
73252;DHT22;61473;50.834;4.552;2022-07-29T05:22:58;21.40;53.40
73252;DHT22;61473;50.834;4.552;2022-07-29T05:25:25;21.50;53.30
73252;DHT22;61473;50.834;4.552;2022-07-29T05:27:51;21.60;53.20
73252;DHT22;61473;50.834;4.552;2022-07-29T05:30:17;21.60;53.30
73252;DHT22;61473;50.834;4.552;2022-07-29T05:32:43;21.90;53.70
73252;DHT22;61473;50.834;4.552;2022-07-29T05:35:09;22.20;57.90
73252;DHT22;61473;50.834;4.552;2022-07-29T05:37:35;22.40;59.00
73252;DHT22;61473;50.834;4.552;2022-07-29T05:40:01;22.50;59.00
73252;DHT22;61473;50.834;4.552;2022-07-29T05:42:27;22.60;58.90
73252;DHT22;61473;50.834;4.552;2022-07-29T05:44:54;22.70;58.70
73252;DHT22;61473;50.834;4.552;2022-07-29T05:47:20;22.80;58.70
73252;DHT22;61473;50.834;4.552;2022-07-29T05:49:45;22.90;58.50
73252;DHT22;61473;50.834;4.552;2022-07-29T05:52:11;22.90;58.40
73252;DHT22;61473;50.834;4.552;2022-07-29T05:54:38;23.00;58.20
73252;DHT22;61473;50.834;4.552;2022-07-29T05:57:05;23.00;58.10
73252;DHT22;61473;50.834;4.552;2022-07-29T05:59:31;23.10;58.00
73252;DHT22;61473;50.834;4.552;2022-07-29T06:01:57;23.10;57.90
73252;DHT22;61473;50.834;4.552;2022-07-29T06:04:23;23.10;57.80
73252;DHT22;61473;50.834;4.552;2022-07-29T06:06:48;23.20;58.30
73252;DHT22;61473;50.834;4.552;2022-07-29T06:09:14;23.20;57.60
73252;DHT22;61473;50.834;4.552;2022-07-29T06:11:40;23.20;57.50
73252;DHT22;61473;50.834;4.552;2022-07-29T06:14:06;23.30;57.40
73252;DHT22;61473;50.834;4.552;2022-07-29T06:16:32;23.30;57.40
73252;DHT22;61473;50.834;4.552;2022-07-29T06:18:58;23.30;57.20
73252;DHT22;61473;50.834;4.552;2022-07-29T06:21:23;23.40;57.30
73252;DHT22;61473;50.834;4.552;2022-07-29T06:23:55;23.40;57.10
73252;DHT22;61473;50.834;4.552;2022-07-29T06:26:21;23.40;57.00
73252;DHT22;61473;50.834;4.552;2022-07-29T06:28:46;23.40;57.00
73252;DHT22;61473;50.834;4.552;2022-07-29T06:31:12;23.50;56.80
73252;DHT22;61473;50.834;4.552;2022-07-29T06:33:38;23.50;56.80
73252;DHT22;61473;50.834;4.552;2022-07-29T06:36:05;23.50;57.30
73252;DHT22;61473;50.834;4.552;2022-07-29T06:38:32;23.50;56.60
73252;DHT22;61473;50.834;4.552;2022-07-29T06:40:58;23.60;56.50
73252;DHT22;61473;50.834;4.552;2022-07-29T06:43:37;23.60;56.50
73252;DHT22;61473;50.834;4.552;2022-07-29T06:46:05;23.60;56.30
73252;DHT22;61473;50.834;4.552;2022-07-29T06:48:32;23.60;56.20
73252;DHT22;61473;50.834;4.552;2022-07-29T06:50:59;23.70;56.10
73252;DHT22;61473;50.834;4.552;2022-07-29T06:53:25;23.70;56.00
73252;DHT22;61473;50.834;4.552;2022-07-29T06:55:51;23.70;55.80
73252;DHT22;61473;50.834;4.552;2022-07-29T06:58:17;23.70;55.60
73252;DHT22;61473;50.834;4.552;2022-07-29T07:00:46;23.80;55.50
73252;DHT22;61473;50.834;4.552;2022-07-29T07:03:13;23.80;55.40
73252;DHT22;61473;50.834;4.552;2022-07-29T07:05:39;23.90;55.50
73252;DHT22;61473;50.834;4.552;2022-07-29T07:08:05;23.80;55.50
73252;DHT22;61473;50.834;4.552;2022-07-29T07:10:31;23.80;55.50
73252;DHT22;61473;50.834;4.552;2022-07-29T07:12:57;23.90;55.50
73252;DHT22;61473;50.834;4.552;2022-07-29T07:15:23;23.90;55.60
73252;DHT22;61473;50.834;4.552;2022-07-29T07:17:49;23.90;55.50
73252;DHT22;61473;50.834;4.552;2022-07-29T07:20:16;23.90;55.50
73252;DHT22;61473;50.834;4.552;2022-07-29T07:22:42;23.90;55.40
73252;DHT22;61473;50.834;4.552;2022-07-29T07:25:08;23.90;55.40
73252;DHT22;61473;50.834;4.552;2022-07-29T07:27:34;23.90;55.40
73252;DHT22;61473;50.834;4.552;2022-07-29T07:30:02;23.90;55.30
73252;DHT22;61473;50.834;4.552;2022-07-29T07:32:28;24.00;55.20
73252;DHT22;61473;50.834;4.552;2022-07-29T07:34:54;24.00;55.10
73252;DHT22;61473;50.834;4.552;2022-07-29T07:37:19;24.00;55.10
73252;DHT22;61473;50.834;4.552;2022-07-29T07:39:46;24.00;55.00
73252;DHT22;61473;50.834;4.552;2022-07-29T07:42:11;24.00;54.80
73252;DHT22;61473;50.834;4.552;2022-07-29T07:44:39;24.00;55.00
73252;DHT22;61473;50.834;4.552;2022-07-29T07:47:05;24.00;54.80
73252;DHT22;61473;50.834;4.552;2022-07-29T07:49:31;24.00;54.80
73252;DHT22;61473;50.834;4.552;2022-07-29T07:51:56;24.00;54.70
73252;DHT22;61473;50.834;4.552;2022-07-29T07:54:22;24.10;54.80
73252;DHT22;61473;50.834;4.552;2022-07-29T07:56:48;24.10;54.80
73252;DHT22;61473;50.834;4.552;2022-07-29T07:59:15;24.10;54.80
73252;DHT22;61473;50.834;4.552;2022-07-29T08:01:41;24.10;54.80
73252;DHT22;61473;50.834;4.552;2022-07-29T08:04:07;24.10;54.80
73252;DHT22;61473;50.834;4.552;2022-07-29T08:06:34;24.10;54.80
73252;DHT22;61473;50.834;4.552;2022-07-29T08:09:04;24.20;54.70
73252;DHT22;61473;50.834;4.552;2022-07-29T08:11:31;24.20;54.70
73252;DHT22;61473;50.834;4.552;2022-07-29T08:13:56;24.20;54.80
73252;DHT22;61473;50.834;4.552;2022-07-29T08:16:22;24.20;54.80
73252;DHT22;61473;50.834;4.552;2022-07-29T08:18:48;24.20;54.70
73252;DHT22;61473;50.834;4.552;2022-07-29T08:21:14;24.20;54.70
73252;DHT22;61473;50.834;4.552;2022-07-29T08:23:42;24.20;54.70
73252;DHT22;61473;50.834;4.552;2022-07-29T08:26:13;24.20;54.70
73252;DHT22;61473;50.834;4.552;2022-07-29T08:28:43;24.20;54.60
73252;DHT22;61473;50.834;4.552;2022-07-29T08:31:15;24.30;54.80
73252;DHT22;61473;50.834;4.552;2022-07-29T08:33:41;24.30;54.70
73252;DHT22;61473;50.834;4.552;2022-07-29T08:36:07;24.30;54.70
73252;DHT22;61473;50.834;4.552;2022-07-29T08:38:33;24.30;54.70
73252;DHT22;61473;50.834;4.552;2022-07-29T08:41:00;24.30;54.60
73252;DHT22;61473;50.834;4.552;2022-07-29T08:43:28;24.30;54.60
73252;DHT22;61473;50.834;4.552;2022-07-29T08:45:54;24.30;54.70
73252;DHT22;61473;50.834;4.552;2022-07-29T08:48:22;24.30;54.70
73252;DHT22;61473;50.834;4.552;2022-07-29T08:50:52;24.40;54.70
73252;DHT22;61473;50.834;4.552;2022-07-29T08:53:20;24.40;54.70
73252;DHT22;61473;50.834;4.552;2022-07-29T08:55:48;24.40;54.70
73252;DHT22;61473;50.834;4.552;2022-07-29T08:58:16;24.40;54.60
73252;DHT22;61473;50.834;4.552;2022-07-29T09:00:55;24.40;54.70
73252;DHT22;61473;50.834;4.552;2022-07-29T09:03:23;24.40;54.70
73252;DHT22;61473;50.834;4.552;2022-07-29T09:05:50;24.40;54.60
73252;DHT22;61473;50.834;4.552;2022-07-29T09:08:17;24.50;54.60
73252;DHT22;61473;50.834;4.552;2022-07-29T09:10:43;24.50;54.60
73252;DHT22;61473;50.834;4.552;2022-07-29T09:13:10;24.50;54.60
73252;DHT22;61473;50.834;4.552;2022-07-29T09:15:35;24.50;54.50
73252;DHT22;61473;50.834;4.552;2022-07-29T09:18:01;24.50;54.50
73252;DHT22;61473;50.834;4.552;2022-07-29T09:20:27;24.50;54.50
73252;DHT22;61473;50.834;4.552;2022-07-29T09:23:14;24.50;54.60
73252;DHT22;61473;50.834;4.552;2022-07-29T09:25:41;24.50;54.50
73252;DHT22;61473;50.834;4.552;2022-07-29T09:28:11;24.50;54.50
73252;DHT22;61473;50.834;4.552;2022-07-29T09:30:58;24.60;54.50
73252;DHT22;61473;50.834;4.552;2022-07-29T09:33:31;24.60;54.50
73252;DHT22;61473;50.834;4.552;2022-07-29T09:36:04;24.60;54.50
73252;DHT22;61473;50.834;4.552;2022-07-29T09:38:31;24.60;54.50
73252;DHT22;61473;50.834;4.552;2022-07-29T09:40:58;24.60;54.50
73252;DHT22;61473;50.834;4.552;2022-07-29T09:43:24;24.60;55.10
73252;DHT22;61473;50.834;4.552;2022-07-29T09:45:50;24.60;54.40
73252;DHT22;61473;50.834;4.552;2022-07-29T09:48:18;24.60;54.40
73252;DHT22;61473;50.834;4.552;2022-07-29T09:50:45;24.60;54.40
73252;DHT22;61473;50.834;4.552;2022-07-29T09:53:12;24.70;54.40
73252;DHT22;61473;50.834;4.552;2022-07-29T09:55:54;24.70;54.40
73252;DHT22;61473;50.834;4.552;2022-07-29T09:58:21;24.70;54.40
73252;DHT22;61473;50.834;4.552;2022-07-29T10:00:49;24.70;54.40
73252;DHT22;61473;50.834;4.552;2022-07-29T10:03:16;24.70;54.40
73252;DHT22;61473;50.834;4.552;2022-07-29T10:05:43;24.70;54.50
73252;DHT22;61473;50.834;4.552;2022-07-29T10:08:10;24.70;54.40
73252;DHT22;61473;50.834;4.552;2022-07-29T10:10:39;24.80;54.50
73252;DHT22;61473;50.834;4.552;2022-07-29T10:13:10;24.80;54.40
73252;DHT22;61473;50.834;4.552;2022-07-29T10:15:38;24.80;54.40
73252;DHT22;61473;50.834;4.552;2022-07-29T10:18:07;24.80;54.30
73252;DHT22;61473;50.834;4.552;2022-07-29T10:20:33;24.80;54.40
73252;DHT22;61473;50.834;4.552;2022-07-29T10:22:59;24.80;54.40
73252;DHT22;61473;50.834;4.552;2022-07-29T10:25:25;24.80;54.40
73252;DHT22;61473;50.834;4.552;2022-07-29T10:27:53;24.90;54.30
73252;DHT22;61473;50.834;4.552;2022-07-29T10:30:21;24.80;54.30
73252;DHT22;61473;50.834;4.552;2022-07-29T10:43:59;24.90;54.30
73252;DHT22;61473;50.834;4.552;2022-07-29T10:46:26;25.00;54.30
73252;DHT22;61473;50.834;4.552;2022-07-29T10:59:38;25.00;54.20
73252;DHT22;61473;50.834;4.552;2022-07-29T11:05:03;25.10;54.10
73252;DHT22;61473;50.834;4.552;2022-07-29T11:07:30;25.10;54.30
73252;DHT22;61473;50.834;4.552;2022-07-29T11:15:13;25.20;54.20
73252;DHT22;61473;50.834;4.552;2022-07-29T11:20:43;25.20;54.30
73252;DHT22;61473;50.834;4.552;2022-07-29T11:23:20;25.20;54.20
73252;DHT22;61473;50.834;4.552;2022-07-29T11:29:20;25.20;54.20
73252;DHT22;61473;50.834;4.552;2022-07-29T11:31:50;25.20;54.20
73252;DHT22;61473;50.834;4.552;2022-07-29T11:34:24;25.20;54.20
73252;DHT22;61473;50.834;4.552;2022-07-29T11:47:21;25.30;54.20
73252;DHT22;61473;50.834;4.552;2022-07-29T11:49:47;25.30;54.20
73252;DHT22;61473;50.834;4.552;2022-07-29T11:52:13;25.30;54.30
73252;DHT22;61473;50.834;4.552;2022-07-29T11:54:42;25.30;54.20
73252;DHT22;61473;50.834;4.552;2022-07-29T11:57:08;25.40;54.30
73252;DHT22;61473;50.834;4.552;2022-07-29T11:59:41;25.30;54.20
73252;DHT22;61473;50.834;4.552;2022-07-29T12:02:08;25.40;54.30
73252;DHT22;61473;50.834;4.552;2022-07-29T12:04:46;25.40;54.30
73252;DHT22;61473;50.834;4.552;2022-07-29T12:07:13;25.40;54.40
73252;DHT22;61473;50.834;4.552;2022-07-29T12:09:38;25.40;55.00
73252;DHT22;61473;50.834;4.552;2022-07-29T12:12:04;25.40;54.30
73252;DHT22;61473;50.834;4.552;2022-07-29T12:14:33;25.40;54.20
73252;DHT22;61473;50.834;4.552;2022-07-29T12:16:59;25.40;54.30
73252;DHT22;61473;50.834;4.552;2022-07-29T12:19:26;25.40;54.30
73252;DHT22;61473;50.834;4.552;2022-07-29T12:21:55;25.40;54.20
73252;DHT22;61473;50.834;4.552;2022-07-29T12:24:24;25.50;54.30
73252;DHT22;61473;50.834;4.552;2022-07-29T12:26:55;25.50;54.20
73252;DHT22;61473;50.834;4.552;2022-07-29T12:29:21;25.50;54.20
73252;DHT22;61473;50.834;4.552;2022-07-29T12:31:51;25.50;54.00
73252;DHT22;61473;50.834;4.552;2022-07-29T12:34:21;25.50;54.00
73252;DHT22;61473;50.834;4.552;2022-07-29T12:36:48;25.50;54.10
73252;DHT22;61473;50.834;4.552;2022-07-29T12:39:15;25.50;54.00
73252;DHT22;61473;50.834;4.552;2022-07-29T12:41:43;25.50;54.20
73252;DHT22;61473;50.834;4.552;2022-07-29T12:44:09;25.50;54.10
73252;DHT22;61473;50.834;4.552;2022-07-29T12:46:35;25.50;54.00
73252;DHT22;61473;50.834;4.552;2022-07-29T12:49:00;25.50;54.10
73252;DHT22;61473;50.834;4.552;2022-07-29T12:51:34;25.50;54.10
73252;DHT22;61473;50.834;4.552;2022-07-29T12:54:11;25.50;54.00
73252;DHT22;61473;50.834;4.552;2022-07-29T12:56:40;25.50;54.00
73252;DHT22;61473;50.834;4.552;2022-07-29T12:59:13;25.50;53.90
73252;DHT22;61473;50.834;4.552;2022-07-29T13:01:39;25.50;54.00
73252;DHT22;61473;50.834;4.552;2022-07-29T13:04:04;25.50;54.10
73252;DHT22;61473;50.834;4.552;2022-07-29T13:09:19;25.60;54.20
73252;DHT22;61473;50.834;4.552;2022-07-29T13:11:52;25.60;54.10
73252;DHT22;61473;50.834;4.552;2022-07-29T13:14:39;25.60;54.10
73252;DHT22;61473;50.834;4.552;2022-07-29T13:17:12;25.60;54.10
73252;DHT22;61473;50.834;4.552;2022-07-29T13:19:47;25.60;54.10
73252;DHT22;61473;50.834;4.552;2022-07-29T13:22:18;25.60;54.10
73252;DHT22;61473;50.834;4.552;2022-07-29T13:27:19;25.60;54.10
73252;DHT22;61473;50.834;4.552;2022-07-29T13:29:45;25.60;54.20
73252;DHT22;61473;50.834;4.552;2022-07-29T13:32:12;25.60;54.20
73252;DHT22;61473;50.834;4.552;2022-07-29T13:34:38;25.60;54.20
73252;DHT22;61473;50.834;4.552;2022-07-29T13:37:04;25.60;54.10
73252;DHT22;61473;50.834;4.552;2022-07-29T13:39:30;25.60;54.20
73252;DHT22;61473;50.834;4.552;2022-07-29T13:41:56;25.60;54.10
73252;DHT22;61473;50.834;4.552;2022-07-29T13:44:22;25.60;54.10
73252;DHT22;61473;50.834;4.552;2022-07-29T13:46:47;25.60;54.10
73252;DHT22;61473;50.834;4.552;2022-07-29T13:49:13;25.60;54.00
73252;DHT22;61473;50.834;4.552;2022-07-29T13:51:39;25.60;54.00
73252;DHT22;61473;50.834;4.552;2022-07-29T13:54:05;25.60;54.00
73252;DHT22;61473;50.834;4.552;2022-07-29T13:56:30;25.60;54.00
73252;DHT22;61473;50.834;4.552;2022-07-29T13:58:57;25.60;54.00
73252;DHT22;61473;50.834;4.552;2022-07-29T14:01:23;25.60;54.10
73252;DHT22;61473;50.834;4.552;2022-07-29T14:03:49;25.60;53.90
73252;DHT22;61473;50.834;4.552;2022-07-29T14:06:14;25.60;54.00
73252;DHT22;61473;50.834;4.552;2022-07-29T14:08:40;25.60;54.00
73252;DHT22;61473;50.834;4.552;2022-07-29T14:11:06;25.60;53.80
73252;DHT22;61473;50.834;4.552;2022-07-29T14:13:32;25.60;53.90
73252;DHT22;61473;50.834;4.552;2022-07-29T14:15:58;25.60;53.90
73252;DHT22;61473;50.834;4.552;2022-07-29T14:18:23;25.60;53.90
73252;DHT22;61473;50.834;4.552;2022-07-29T14:20:49;25.60;53.80
73252;DHT22;61473;50.834;4.552;2022-07-29T14:23:16;25.70;53.80
73252;DHT22;61473;50.834;4.552;2022-07-29T14:25:41;25.70;53.70
73252;DHT22;61473;50.834;4.552;2022-07-29T14:28:07;25.70;53.70
73252;DHT22;61473;50.834;4.552;2022-07-29T14:30:33;25.60;53.60
73252;DHT22;61473;50.834;4.552;2022-07-29T14:32:58;25.70;53.60
73252;DHT22;61473;50.834;4.552;2022-07-29T14:35:24;25.60;53.50
73252;DHT22;61473;50.834;4.552;2022-07-29T14:37:50;25.70;53.60
73252;DHT22;61473;50.834;4.552;2022-07-29T14:40:15;25.70;53.50
73252;DHT22;61473;50.834;4.552;2022-07-29T14:42:41;25.70;53.70
73252;DHT22;61473;50.834;4.552;2022-07-29T14:45:08;25.70;53.70
73252;DHT22;61473;50.834;4.552;2022-07-29T14:47:35;25.70;53.60
73252;DHT22;61473;50.834;4.552;2022-07-29T14:50:01;25.70;53.70
73252;DHT22;61473;50.834;4.552;2022-07-29T14:52:26;25.70;53.70
73252;DHT22;61473;50.834;4.552;2022-07-29T14:54:52;25.70;53.70
73252;DHT22;61473;50.834;4.552;2022-07-29T14:57:18;25.70;53.60
73252;DHT22;61473;50.834;4.552;2022-07-29T14:59:43;25.70;53.70
73252;DHT22;61473;50.834;4.552;2022-07-29T15:02:09;25.70;53.60
73252;DHT22;61473;50.834;4.552;2022-07-29T15:04:34;25.70;53.70
73252;DHT22;61473;50.834;4.552;2022-07-29T15:07:00;25.70;53.60
73252;DHT22;61473;50.834;4.552;2022-07-29T15:09:26;25.70;53.70
73252;DHT22;61473;50.834;4.552;2022-07-29T15:11:52;25.70;53.60
73252;DHT22;61473;50.834;4.552;2022-07-29T15:14:17;25.80;53.70
73252;DHT22;61473;50.834;4.552;2022-07-29T15:16:43;25.70;53.60
73252;DHT22;61473;50.834;4.552;2022-07-29T15:19:09;25.80;53.70
73252;DHT22;61473;50.834;4.552;2022-07-29T15:21:35;25.80;53.70
73252;DHT22;61473;50.834;4.552;2022-07-29T15:24:01;25.80;53.60
73252;DHT22;61473;50.834;4.552;2022-07-29T15:26:27;25.80;53.70
73252;DHT22;61473;50.834;4.552;2022-07-29T15:28:52;25.70;53.50
73252;DHT22;61473;50.834;4.552;2022-07-29T15:31:18;25.70;53.50
73252;DHT22;61473;50.834;4.552;2022-07-29T15:33:44;25.80;53.50
73252;DHT22;61473;50.834;4.552;2022-07-29T15:36:10;25.80;53.50
73252;DHT22;61473;50.834;4.552;2022-07-29T15:38:38;25.80;53.50
73252;DHT22;61473;50.834;4.552;2022-07-29T15:41:06;25.80;53.50
73252;DHT22;61473;50.834;4.552;2022-07-29T15:43:32;25.80;53.50
73252;DHT22;61473;50.834;4.552;2022-07-29T15:46:00;25.80;53.50
73252;DHT22;61473;50.834;4.552;2022-07-29T15:48:44;25.80;53.60
73252;DHT22;61473;50.834;4.552;2022-07-29T15:51:10;25.80;53.60
73252;DHT22;61473;50.834;4.552;2022-07-29T15:53:36;25.80;53.60
73252;DHT22;61473;50.834;4.552;2022-07-29T15:56:02;25.80;53.60
73252;DHT22;61473;50.834;4.552;2022-07-29T15:58:27;25.80;53.60
73252;DHT22;61473;50.834;4.552;2022-07-29T16:00:53;25.80;53.60
73252;DHT22;61473;50.834;4.552;2022-07-29T16:03:19;25.80;53.60
73252;DHT22;61473;50.834;4.552;2022-07-29T16:05:45;25.80;53.70
73252;DHT22;61473;50.834;4.552;2022-07-29T16:08:11;25.80;53.60
73252;DHT22;61473;50.834;4.552;2022-07-29T16:10:37;25.80;53.60
73252;DHT22;61473;50.834;4.552;2022-07-29T16:13:03;25.80;53.50
73252;DHT22;61473;50.834;4.552;2022-07-29T16:15:28;25.80;53.50
73252;DHT22;61473;50.834;4.552;2022-07-29T16:17:54;25.80;53.50
73252;DHT22;61473;50.834;4.552;2022-07-29T16:20:20;25.80;53.40
73252;DHT22;61473;50.834;4.552;2022-07-29T16:22:46;25.80;53.50
73252;DHT22;61473;50.834;4.552;2022-07-29T16:25:12;25.80;53.50
73252;DHT22;61473;50.834;4.552;2022-07-29T16:27:38;25.80;53.50
73252;DHT22;61473;50.834;4.552;2022-07-29T16:30:05;25.80;53.50
73252;DHT22;61473;50.834;4.552;2022-07-29T16:32:31;25.80;53.50
73252;DHT22;61473;50.834;4.552;2022-07-29T16:34:56;25.80;53.20
73252;DHT22;61473;50.834;4.552;2022-07-29T16:37:23;25.80;53.20
73252;DHT22;61473;50.834;4.552;2022-07-29T16:39:48;25.80;53.10
73252;DHT22;61473;50.834;4.552;2022-07-29T16:42:14;25.80;53.00